Time;durP1;ratioP1;P1;durP2;ratioP2;P2;SDS_P1;SDS_P2;PMS_P1;PMS_P2;Temp;Humidity;BMP_temperature;BMP_pressure;BME280_temperature;BME280_humidity;BME280_pressure;Samples;Min_cycle;Max_cycle;Signal;HPM_P1;HPM_P2
2022/09/19 00:01:06;;;;;;;2.20;0.80;;;;;;;;;;5056791;28;20495;-76
2022/09/19 00:03:32;;;;;;;10.73;1.48;;;;;;;;;;5052548;28;20234;-74
2022/09/19 00:05:58;;;;;;;5.13;0.95;;;;;;;;;;5057423;28;20036;-74
2022/09/19 00:08:25;;;;;;;6.63;1.30;;;;;;;;;;5060039;28;20119;-75
2022/09/19 00:10:51;;;;;;;8.23;1.85;;;;;;;;;;5062852;28;20089;-75
2022/09/19 00:13:18;;;;;;;9.07;2.78;;;;;;;;;;5049721;28;20029;-75
2022/09/19 00:15:48;;;;;;;2.65;1.40;;;;;;;;;;5049462;28;20083;-75
2022/09/19 00:18:14;;;;;;;3.25;1.55;;;;;;;;;;5054876;28;20032;-75
2022/09/19 00:20:41;;;;;;;3.35;1.25;;;;;;;;;;5051878;28;20418;-75
2022/09/19 00:26:03;;;;;;;2.17;0.80;;;;;;;;;;5056474;28;20598;-75
2022/09/19 00:28:30;;;;;;;3.58;1.00;;;;;;;;;;5057857;28;20488;-75
2022/09/19 00:30:56;;;;;;;4.88;0.95;;;;;;;;;;5054954;28;20424;-73
2022/09/19 00:33:29;;;;;;;2.15;0.70;;;;;;;;;;5058423;28;20025;-74
2022/09/19 00:35:55;;;;;;;5.65;1.30;;;;;;;;;;5056523;28;20366;-74
2022/09/19 00:38:22;;;;;;;2.15;0.77;;;;;;;;;;5057421;28;20017;-74
2022/09/19 00:40:49;;;;;;;3.38;0.80;;;;;;;;;;5058175;28;20032;-75
2022/09/19 00:43:17;;;;;;;3.30;0.70;;;;;;;;;;5055806;28;20032;-75
2022/09/19 00:45:43;;;;;;;4.00;0.65;;;;;;;;;;5060069;28;20524;-74
2022/09/19 00:48:10;;;;;;;2.60;0.73;;;;;;;;;;5055138;28;20029;-75
2022/09/19 00:50:37;;;;;;;4.80;1.02;;;;;;;;;;5014319;28;1290111;-74
2022/09/19 00:53:12;;;;;;;3.47;1.00;;;;;;;;;;5059882;28;20040;-74
2022/09/19 00:55:38;;;;;;;5.97;0.90;;;;;;;;;;5058950;28;20069;-75
2022/09/19 00:58:19;;;;;;;1.65;0.68;;;;;;;;;;5059930;28;20087;-75
2022/09/19 01:00:45;;;;;;;2.55;0.85;;;;;;;;;;5059089;28;20043;-75
2022/09/19 01:03:12;;;;;;;3.45;0.75;;;;;;;;;;5055654;28;20023;-75
2022/09/19 01:05:51;;;;;;;3.97;1.00;;;;;;;;;;5055320;28;20028;-74
2022/09/19 01:08:37;;;;;;;2.17;0.80;;;;;;;;;;5065215;28;20033;-75
2022/09/19 01:11:16;;;;;;;2.33;0.80;;;;;;;;;;5060966;28;20174;-74
2022/09/19 01:13:52;;;;;;;2.58;0.88;;;;;;;;;;5056055;28;20484;-74
2022/09/19 01:16:21;;;;;;;4.88;1.20;;;;;;;;;;5060518;28;20052;-74
2022/09/19 01:18:49;;;;;;;4.97;1.48;;;;;;;;;;5055816;28;20477;-74
2022/09/19 01:24:06;;;;;;;2.13;0.95;;;;;;;;;;5055924;28;20098;-75
2022/09/19 01:26:51;;;;;;;2.88;0.73;;;;;;;;;;5058980;28;20021;-74
2022/09/19 01:29:49;;;;;;;2.88;1.15;;;;;;;;;;5058157;28;20021;-75
2022/09/19 01:32:18;;;;;;;3.97;1.40;;;;;;;;;;5063363;28;20040;-74
2022/09/19 01:34:50;;;;;;;5.40;1.23;;;;;;;;;;5059802;28;20021;-75
2022/09/19 01:37:17;;;;;;;3.40;1.10;;;;;;;;;;5055728;28;20488;-75
2022/09/19 01:39:46;;;;;;;4.40;1.20;;;;;;;;;;5058939;28;20032;-75
2022/09/19 01:42:13;;;;;;;5.20;1.30;;;;;;;;;;5056454;28;20090;-74
2022/09/19 01:44:39;;;;;;;1.95;1.17;;;;;;;;;;5057225;28;20036;-74
2022/09/19 01:47:21;;;;;;;1.95;1.20;;;;;;;;;;5059527;28;20040;-75
2022/09/19 01:49:53;;;;;;;3.38;1.13;;;;;;;;;;5057134;28;20127;-75
2022/09/19 01:52:29;;;;;;;3.92;1.08;;;;;;;;;;5058082;28;20025;-75
2022/09/19 01:55:07;;;;;;;1.60;0.90;;;;;;;;;;5057798;28;20037;-75
2022/09/19 01:57:36;;;;;;;2.47;1.20;;;;;;;;;;5059692;28;20050;-75
2022/09/19 02:00:02;;;;;;;5.63;1.65;;;;;;;;;;5056865;28;20024;-76
2022/09/19 02:02:33;;;;;;;4.18;0.95;;;;;;;;;;5059418;28;20119;-74
2022/09/19 02:05:03;;;;;;;3.38;1.13;;;;;;;;;;5055964;28;20021;-74
2022/09/19 02:07:42;;;;;;;2.50;1.02;;;;;;;;;;5058936;28;20032;-75
2022/09/19 02:10:10;;;;;;;3.45;1.10;;;;;;;;;;5057130;28;20016;-74
2022/09/19 02:12:39;;;;;;;3.55;1.33;;;;;;;;;;5057618;28;20031;-75
2022/09/19 02:15:07;;;;;;;2.97;1.13;;;;;;;;;;5058810;28;20030;-74
2022/09/19 02:17:53;;;;;;;3.67;1.10;;;;;;;;;;5052439;28;20041;-75
2022/09/19 02:20:24;;;;;;;3.10;1.27;;;;;;;;;;5058170;28;20029;-74
2022/09/19 02:22:54;;;;;;;2.27;0.90;;;;;;;;;;5055781;28;20085;-74
2022/09/19 02:25:23;;;;;;;3.15;1.20;;;;;;;;;;5053742;28;20265;-75
2022/09/19 02:27:55;;;;;;;4.25;1.20;;;;;;;;;;5051650;28;20481;-75
2022/09/19 02:30:21;;;;;;;5.68;1.50;;;;;;;;;;5057810;28;20369;-74
2022/09/19 02:32:48;;;;;;;4.72;1.30;;;;;;;;;;5059226;28;20040;-74
2022/09/19 02:35:20;;;;;;;4.78;1.45;;;;;;;;;;5053526;28;20025;-74
2022/09/19 02:37:47;;;;;;;3.17;0.98;;;;;;;;;;5049493;28;20482;-74
2022/09/19 02:40:28;;;;;;;3.65;1.08;;;;;;;;;;5057234;28;20041;-74
2022/09/19 02:43:02;;;;;;;2.13;1.43;;;;;;;;;;5052731;28;20099;-75
2022/09/19 02:45:32;;;;;;;2.65;0.95;;;;;;;;;;5054425;28;20257;-74
2022/09/19 02:48:04;;;;;;;3.67;0.98;;;;;;;;;;5052498;28;20025;-76
2022/09/19 02:50:36;;;;;;;3.83;1.00;;;;;;;;;;5057376;28;20409;-74
2022/09/19 02:53:04;;;;;;;4.35;1.00;;;;;;;;;;5055077;28;20104;-75
2022/09/19 02:55:33;;;;;;;3.30;0.80;;;;;;;;;;5059954;28;20035;-75
2022/09/19 02:58:02;;;;;;;2.70;1.10;;;;;;;;;;5053627;28;20533;-74
2022/09/19 03:00:30;;;;;;;2.45;1.00;;;;;;;;;;5058867;28;20039;-75
2022/09/19 03:05:59;;;;;;;2.97;1.17;;;;;;;;;;5054036;28;20570;-74
2022/09/19 03:08:26;;;;;;;3.05;0.88;;;;;;;;;;5053064;28;20036;-74
2022/09/19 03:10:54;;;;;;;4.28;1.00;;;;;;;;;;5053846;28;20629;-74
2022/09/19 03:13:24;;;;;;;3.70;0.90;;;;;;;;;;5054762;28;20451;-75
2022/09/19 03:15:56;;;;;;;4.50;1.02;;;;;;;;;;5052794;28;20379;-74
2022/09/19 03:18:24;;;;;;;3.10;1.00;;;;;;;;;;5048998;28;20103;-75
2022/09/19 03:20:53;;;;;;;3.33;1.30;;;;;;;;;;5047631;28;20190;-74
2022/09/19 03:23:23;;;;;;;2.15;1.08;;;;;;;;;;5048850;28;20027;-75
2022/09/19 03:25:49;;;;;;;2.53;1.42;;;;;;;;;;5050964;28;20397;-75
2022/09/19 03:28:19;;;;;;;3.13;1.25;;;;;;;;;;5053701;28;20032;-74
2022/09/19 03:30:46;;;;;;;3.05;1.05;;;;;;;;;;5052096;28;20033;-75
2022/09/19 03:33:15;;;;;;;3.55;1.10;;;;;;;;;;5054930;28;20028;-74
2022/09/19 03:35:42;;;;;;;2.95;1.27;;;;;;;;;;5054656;28;20035;-75
2022/09/19 03:38:09;;;;;;;2.00;1.02;;;;;;;;;;5054996;28;20020;-74
2022/09/19 03:40:37;;;;;;;1.92;1.02;;;;;;;;;;5051960;28;20033;-73
2022/09/19 03:43:04;;;;;;;2.78;1.00;;;;;;;;;;5052001;28;20037;-74
2022/09/19 03:45:30;;;;;;;2.85;0.98;;;;;;;;;;5052934;28;20127;-74
2022/09/19 03:47:56;;;;;;;4.43;1.80;;;;;;;;;;5051022;28;20029;-74
2022/09/19 03:50:23;;;;;;;2.95;1.80;;;;;;;;;;5053115;28;20558;-73
2022/09/19 03:52:49;;;;;;;5.05;1.15;;;;;;;;;;5052310;28;20048;-74
2022/09/19 03:55:16;;;;;;;2.85;1.00;;;;;;;;;;5057682;28;20425;-74
2022/09/19 03:57:42;;;;;;;2.42;1.10;;;;;;;;;;5052865;28;20025;-75
2022/09/19 04:00:08;;;;;;;14.98;1.55;;;;;;;;;;5052326;28;20041;-74
2022/09/19 04:02:35;;;;;;;2.17;1.05;;;;;;;;;;5051295;28;20024;-74
2022/09/19 04:05:02;;;;;;;2.38;0.85;;;;;;;;;;5050815;28;20033;-74
2022/09/19 04:07:28;;;;;;;2.50;0.88;;;;;;;;;;5052486;28;20032;-74
2022/09/19 04:09:55;;;;;;;3.85;1.10;;;;;;;;;;5052634;28;20055;-74
2022/09/19 04:12:21;;;;;;;4.10;0.90;;;;;;;;;;5050765;28;20021;-74
2022/09/19 04:14:48;;;;;;;3.65;1.08;;;;;;;;;;5052544;28;20020;-74
2022/09/19 04:17:14;;;;;;;6.72;1.42;;;;;;;;;;5050254;28;20643;-75
2022/09/19 04:19:42;;;;;;;3.50;1.08;;;;;;;;;;5052279;28;20128;-74
2022/09/19 04:22:08;;;;;;;3.35;1.17;;;;;;;;;;5051648;28;20036;-74
2022/09/19 04:24:41;;;;;;;2.20;1.10;;;;;;;;;;5053174;28;20028;-74
2022/09/19 04:27:08;;;;;;;1.67;1.15;;;;;;;;;;5049739;28;20025;-75
2022/09/19 04:29:35;;;;;;;3.97;1.35;;;;;;;;;;5052308;28;20652;-75
2022/09/19 04:32:02;;;;;;;1.73;1.08;;;;;;;;;;5050446;28;20100;-75
2022/09/19 04:34:29;;;;;;;3.75;1.20;;;;;;;;;;5050329;28;20036;-74
2022/09/19 04:36:56;;;;;;;4.38;1.58;;;;;;;;;;5050853;28;20017;-75
2022/09/19 04:39:23;;;;;;;6.75;1.83;;;;;;;;;;5049158;28;20037;-74
2022/09/19 04:41:52;;;;;;;3.85;1.27;;;;;;;;;;5054247;28;20684;-74
2022/09/19 04:44:21;;;;;;;3.42;1.10;;;;;;;;;;5047746;28;20036;-74
2022/09/19 04:46:50;;;;;;;2.28;1.05;;;;;;;;;;5053284;28;20107;-74
2022/09/19 04:49:16;;;;;;;4.50;1.40;;;;;;;;;;5048169;28;20051;-73
2022/09/19 04:51:43;;;;;;;5.45;2.03;;;;;;;;;;5053473;28;20029;-73
2022/09/19 04:54:10;;;;;;;6.35;1.80;;;;;;;;;;5051177;28;20488;-74
2022/09/19 04:56:36;;;;;;;4.07;1.42;;;;;;;;;;5050526;28;20033;-74
2022/09/19 04:59:03;;;;;;;2.92;1.05;;;;;;;;;;5052166;28;20113;-74
2022/09/19 05:01:32;;;;;;;9.32;1.35;;;;;;;;;;5047192;28;20033;-74
2022/09/19 05:03:59;;;;;;;10.15;1.95;;;;;;;;;;5055503;28;20020;-74
2022/09/19 05:06:28;;;;;;;2.63;1.20;;;;;;;;;;5048075;28;20029;-74
2022/09/19 05:08:55;;;;;;;5.32;1.70;;;;;;;;;;5052162;28;20117;-74
2022/09/19 05:11:22;;;;;;;2.88;1.35;;;;;;;;;;5051035;28;20689;-74
2022/09/19 05:13:49;;;;;;;4.38;1.50;;;;;;;;;;5046644;28;20461;-74
2022/09/19 05:16:15;;;;;;;8.10;1.85;;;;;;;;;;5051423;28;20646;-74
2022/09/19 05:18:42;;;;;;;3.58;1.80;;;;;;;;;;5046366;28;20032;-75
2022/09/19 05:21:11;;;;;;;4.82;1.75;;;;;;;;;;5050201;28;20044;-74
2022/09/19 05:23:38;;;;;;;4.95;1.55;;;;;;;;;;5048782;28;20098;-74
2022/09/19 05:26:05;;;;;;;10.15;2.30;;;;;;;;;;5050501;28;20267;-75
2022/09/19 05:28:31;;;;;;;5.70;2.42;;;;;;;;;;5050475;28;20021;-74
2022/09/19 05:30:58;;;;;;;3.47;1.58;;;;;;;;;;5048405;28;20083;-74
2022/09/19 05:33:28;;;;;;;5.57;2.55;;;;;;;;;;5051216;28;20678;-74
2022/09/19 05:35:55;;;;;;;6.28;2.42;;;;;;;;;;5047549;28;20044;-74
2022/09/19 05:38:22;;;;;;;3.45;2.13;;;;;;;;;;5052433;28;20274;-74
2022/09/19 05:40:51;;;;;;;4.53;2.63;;;;;;;;;;5048395;28;20032;-73
2022/09/19 05:43:17;;;;;;;8.45;2.50;;;;;;;;;;5051435;28;20037;-74
2022/09/19 05:45:44;;;;;;;8.23;2.90;;;;;;;;;;5048932;28;20029;-74
2022/09/19 05:48:10;;;;;;;9.52;3.15;;;;;;;;;;5049827;28;20104;-74
2022/09/19 05:50:37;;;;;;;7.22;2.83;;;;;;;;;;5052688;28;20044;-74
2022/09/19 05:55:48;;;;;;;9.88;3.22;;;;;;;;;;5051369;28;20125;-74
2022/09/19 05:58:17;;;;;;;6.13;3.70;;;;;;;;;;5047868;28;20025;-74
2022/09/19 06:00:43;;;;;;;9.05;4.22;;;;;;;;;;5049904;28;20040;-74
2022/09/19 06:03:14;;;;;;;8.32;4.03;;;;;;;;;;5048251;28;20100;-74
2022/09/19 06:05:43;;;;;;;7.50;4.37;;;;;;;;;;5047124;28;20548;-77
2022/09/19 06:08:09;;;;;;;12.73;5.82;;;;;;;;;;5044674;28;21837;-77
2022/09/19 06:10:39;;;;;;;14.10;5.00;;;;;;;;;;5044664;28;20024;-76
2022/09/19 06:13:06;;;;;;;20.90;6.28;;;;;;;;;;5050788;28;20032;-78
2022/09/19 06:15:33;;;;;;;19.73;9.68;;;;;;;;;;5054594;28;20051;-78
2022/09/19 06:18:00;;;;;;;15.98;8.77;;;;;;;;;;5052308;28;20389;-77
2022/09/19 06:20:27;;;;;;;16.95;7.88;;;;;;;;;;5043364;28;20040;-77
2022/09/19 06:23:02;;;;;;;9.38;7.13;;;;;;;;;;5047204;28;20041;-75
2022/09/19 06:25:29;;;;;;;11.40;6.57;;;;;;;;;;5049815;28;20020;-77
2022/09/19 06:27:56;;;;;;;11.43;6.43;;;;;;;;;;5046244;28;20047;-76
2022/09/19 06:30:23;;;;;;;9.30;4.53;;;;;;;;;;5044936;28;20021;-84
2022/09/19 06:32:52;;;;;;;5.15;2.53;;;;;;;;;;5050573;28;20103;-77
2022/09/19 06:35:23;;;;;;;12.27;3.33;;;;;;;;;;5045540;28;20025;-77
2022/09/19 06:37:49;;;;;;;6.10;3.03;;;;;;;;;;5047307;28;20647;-76
2022/09/19 06:40:22;;;;;;;5.25;3.22;;;;;;;;;;5044829;28;20144;-77
2022/09/19 06:42:49;;;;;;;6.55;2.88;;;;;;;;;;5047625;28;20080;-77
2022/09/19 06:45:15;;;;;;;6.45;3.05;;;;;;;;;;5054408;28;20454;-77
2022/09/19 06:47:41;;;;;;;8.55;3.30;;;;;;;;;;5052841;28;20504;-77
2022/09/19 06:50:10;;;;;;;7.22;2.55;;;;;;;;;;5042278;28;20056;-77
2022/09/19 06:52:36;;;;;;;4.97;2.70;;;;;;;;;;5049755;28;20028;-77
2022/09/19 06:55:03;;;;;;;4.20;2.30;;;;;;;;;;5054623;28;20086;-79
2022/09/19 06:57:29;;;;;;;6.85;2.60;;;;;;;;;;5047991;28;20787;-79
2022/09/19 06:59:55;;;;;;;3.60;2.45;;;;;;;;;;5043358;28;20031;-79
2022/09/19 07:02:21;;;;;;;6.97;3.33;;;;;;;;;;5048211;28;20599;-79
2022/09/19 07:04:47;;;;;;;9.32;3.05;;;;;;;;;;5054896;28;20484;-79
2022/09/19 07:07:14;;;;;;;4.95;2.60;;;;;;;;;;5057421;28;20032;-79
2022/09/19 07:09:40;;;;;;;6.28;2.58;;;;;;;;;;5060368;28;20396;-79
2022/09/19 07:12:08;;;;;;;3.78;2.67;;;;;;;;;;5053883;28;20405;-79
2022/09/19 07:14:34;;;;;;;3.55;2.28;;;;;;;;;;5053660;28;20029;-79
2022/09/19 07:17:01;;;;;;;8.32;2.83;;;;;;;;;;5059751;28;20029;-79
2022/09/19 07:19:27;;;;;;;5.70;2.85;;;;;;;;;;5051084;28;20590;-79
2022/09/19 07:21:53;;;;;;;6.57;2.88;;;;;;;;;;5052500;28;20037;-79
2022/09/19 07:24:20;;;;;;;4.07;2.13;;;;;;;;;;5056032;28;20016;-79
2022/09/19 07:26:46;;;;;;;7.70;2.58;;;;;;;;;;5063575;28;20040;-80
2022/09/19 07:29:12;;;;;;;4.38;2.40;;;;;;;;;;5062758;28;20519;-80
2022/09/19 07:31:38;;;;;;;5.38;1.90;;;;;;;;;;5058084;28;20551;-85
2022/09/19 07:34:04;;;;;;;2.70;1.90;;;;;;;;;;5049741;28;20050;-83
2022/09/19 07:36:31;;;;;;;5.95;2.00;;;;;;;;;;5057880;28;20096;-83
2022/09/19 07:38:57;;;;;;;4.43;2.53;;;;;;;;;;5060473;28;20029;-83
2022/09/19 07:41:23;;;;;;;5.38;2.38;;;;;;;;;;5059912;28;20048;-82
2022/09/19 07:43:49;;;;;;;4.82;2.03;;;;;;;;;;5057256;28;20021;-82
2022/09/19 07:46:17;;;;;;;6.78;2.28;;;;;;;;;;5056129;28;20036;-82
2022/09/19 07:48:43;;;;;;;6.22;2.75;;;;;;;;;;5056684;28;20078;-79
2022/09/19 07:51:09;;;;;;;3.67;2.13;;;;;;;;;;5056622;28;20048;-82
2022/09/19 07:53:36;;;;;;;6.20;2.72;;;;;;;;;;5058563;28;20024;-82
2022/09/19 07:56:04;;;;;;;4.20;2.47;;;;;;;;;;5057443;28;20021;-83
2022/09/19 07:58:30;;;;;;;5.00;2.50;;;;;;;;;;5055848;28;20568;-82
2022/09/19 08:01:00;;;;;;;9.50;3.25;;;;;;;;;;5056419;28;20027;-82
2022/09/19 08:03:27;;;;;;;5.93;2.65;;;;;;;;;;5053851;28;20021;-82
2022/09/19 08:05:53;;;;;;;6.90;2.90;;;;;;;;;;5058672;28;20349;-83
2022/09/19 08:08:20;;;;;;;4.72;2.50;;;;;;;;;;5053687;28;20411;-83
2022/09/19 08:10:47;;;;;;;5.93;2.50;;;;;;;;;;5051583;28;20029;-83
2022/09/19 08:13:13;;;;;;;3.70;2.50;;;;;;;;;;5051078;28;20062;-82
2022/09/19 08:15:40;;;;;;;9.75;2.58;;;;;;;;;;5053755;28;20021;-82
2022/09/19 08:18:17;;;;;;;12.18;3.20;;;;;;;;;;5056202;28;20123;-82
2022/09/19 08:20:44;;;;;;;5.78;2.60;;;;;;;;;;5052197;28;20044;-83
2022/09/19 08:23:14;;;;;;;5.53;2.22;;;;;;;;;;5053408;28;20025;-82
2022/09/19 08:25:43;;;;;;;10.10;2.78;;;;;;;;;;5056733;28;20028;-83
2022/09/19 08:28:09;;;;;;;6.65;2.45;;;;;;;;;;5058568;28;20097;-83
2022/09/19 08:30:35;;;;;;;3.30;2.00;;;;;;;;;;5057625;28;20030;-82
2022/09/19 08:33:02;;;;;;;6.53;2.20;;;;;;;;;;5057475;28;20021;-83
2022/09/19 08:35:29;;;;;;;9.48;3.00;;;;;;;;;;5062265;28;20024;-83
2022/09/19 08:38:00;;;;;;;6.75;2.58;;;;;;;;;;5055691;28;20105;-82
2022/09/19 08:40:28;;;;;;;4.28;2.08;;;;;;;;;;5058661;28;20039;-83
2022/09/19 08:42:54;;;;;;;4.63;1.77;;;;;;;;;;5052475;28;20109;-83
2022/09/19 08:45:33;;;;;;;6.32;2.70;;;;;;;;;;5052220;28;20025;-82
2022/09/19 08:48:02;;;;;;;8.68;3.05;;;;;;;;;;5055188;28;20116;-84
2022/09/19 08:50:31;;;;;;;7.72;2.30;;;;;;;;;;5058744;28;20045;-82
2022/09/19 08:53:01;;;;;;;4.18;2.30;;;;;;;;;;5057292;28;20028;-81
2022/09/19 08:55:29;;;;;;;6.00;2.60;;;;;;;;;;5056025;28;20021;-82
2022/09/19 08:58:07;;;;;;;6.05;2.45;;;;;;;;;;5056307;28;20395;-82
2022/09/19 09:00:39;;;;;;;10.88;2.63;;;;;;;;;;5057110;28;20602;-82
2022/09/19 09:03:06;;;;;;;9.35;3.15;;;;;;;;;;5057983;28;20040;-82
2022/09/19 09:05:44;;;;;;;6.15;2.47;;;;;;;;;;5058614;28;20032;-82
2022/09/19 09:08:29;;;;;;;6.32;2.75;;;;;;;;;;5053925;28;20385;-81
2022/09/19 09:11:20;;;;;;;5.28;2.22;;;;;;;;;;5051335;28;20028;-82
2022/09/19 09:13:52;;;;;;;4.93;2.50;;;;;;;;;;5056191;28;20036;-82
2022/09/19 09:16:24;;;;;;;4.97;2.80;;;;;;;;;;5050179;28;20035;-79
2022/09/19 09:18:56;;;;;;;4.78;2.42;;;;;;;;;;5048757;28;20025;-81
2022/09/19 09:21:27;;;;;;;5.43;2.75;;;;;;;;;;5050284;28;20789;-82
2022/09/19 09:23:53;;;;;;;;;;;;;;;;;;5048856;28;20388;-81
2022/09/19 09:26:25;;;;;;;7.30;3.00;;;;;;;;;;5052400;28;19952;-81
2022/09/19 09:28:57;;;;;;;5.93;3.47;;;;;;;;;;5049810;28;20393;-82
2022/09/19 09:31:28;;;;;;;4.75;2.90;;;;;;;;;;5051962;28;20023;-82
2022/09/19 09:34:03;;;;;;;5.50;3.17;;;;;;;;;;5053837;28;20030;-80
2022/09/19 09:36:33;;;;;;;4.53;3.00;;;;;;;;;;5050034;28;20064;-81
2022/09/19 09:39:04;;;;;;;7.97;3.67;;;;;;;;;;5053167;28;20059;-82
2022/09/19 09:41:45;;;;;;;6.25;3.15;;;;;;;;;;5054981;28;20036;-82
2022/09/19 09:44:15;;;;;;;4.60;2.83;;;;;;;;;;5052912;28;20025;-82
2022/09/19 09:46:43;;;;;;;5.55;3.40;;;;;;;;;;5052389;28;20033;-80
2022/09/19 09:49:12;;;;;;;5.97;3.75;;;;;;;;;;5058766;28;20013;-83
2022/09/19 09:51:57;;;;;;;7.68;3.15;;;;;;;;;;5055448;28;20036;-82
2022/09/19 09:57:21;;;;;;;6.20;2.95;;;;;;;;;;5056027;28;20124;-82
2022/09/19 10:05:44;;;;;;;5.47;3.10;;;;;;;;;;5057421;28;20495;-82
2022/09/19 10:08:22;;;;;;;6.70;3.17;;;;;;;;;;5058282;28;20189;-82
2022/09/19 10:10:53;;;;;;;5.20;3.00;;;;;;;;;;5056790;28;20066;-82
2022/09/19 10:13:25;;;;;;;9.57;3.92;;;;;;;;;;5048544;28;20021;-81
2022/09/19 10:15:54;;;;;;;8.50;3.38;;;;;;;;;;5049553;28;20039;-82
2022/09/19 10:18:23;;;;;;;4.85;3.17;;;;;;;;;;5051576;28;20387;-82
2022/09/19 10:20:51;;;;;;;7.07;3.65;;;;;;;;;;5051058;28;20124;-82
2022/09/19 10:23:30;;;;;;;5.53;3.58;;;;;;;;;;5059989;28;20013;-82
2022/09/19 10:26:02;;;;;;;5.63;3.30;;;;;;;;;;5055788;28;20123;-81
2022/09/19 10:28:40;;;;;;;6.30;2.83;;;;;;;;;;5057830;28;20550;-82
2022/09/19 10:31:23;;;;;;;7.28;3.08;;;;;;;;;;5057111;28;20032;-82
2022/09/19 10:33:50;;;;;;;6.82;3.10;;;;;;;;;;5057487;28;20029;-83
2022/09/19 10:36:16;;;;;;;7.13;2.92;;;;;;;;;;5055016;28;20029;-84
2022/09/19 10:38:50;;;;;;;7.38;2.90;;;;;;;;;;5059010;28;20121;-83
2022/09/19 10:41:20;;;;;;;6.53;2.83;;;;;;;;;;5061366;28;20044;-93
2022/09/19 10:43:46;;;;;;;4.85;2.88;;;;;;;;;;5067967;28;20012;-85
2022/09/19 10:46:23;;;;;;;6.18;3.17;;;;;;;;;;5064622;28;20021;-90
2022/09/19 10:48:54;;;;;;;6.40;2.92;;;;;;;;;;5061574;28;20108;-88
2022/09/19 10:51:20;;;;;;;4.35;2.83;;;;;;;;;;5062792;28;20048;-85
2022/09/19 10:53:48;;;;;;;6.82;3.22;;;;;;;;;;5062391;28;20025;-84
2022/09/19 10:56:39;;;;;;;6.55;2.90;;;;;;;;;;5058664;28;20546;-82
2022/09/19 10:59:22;;;;;;;8.00;3.17;;;;;;;;;;5060294;28;20077;-83
2022/09/19 11:02:07;;;;;;;8.23;3.13;;;;;;;;;;5063812;28;20040;-83
2022/09/19 11:04:35;;;;;;;6.15;2.90;;;;;;;;;;5061224;28;20059;-82
2022/09/19 11:07:03;;;;;;;6.68;2.92;;;;;;;;;;5059077;28;20036;-82
2022/09/19 11:09:36;;;;;;;4.65;2.60;;;;;;;;;;5060787;28;20380;-81
2022/09/19 11:12:03;;;;;;;4.40;2.50;;;;;;;;;;5049573;28;20020;-82
2022/09/19 11:14:32;;;;;;;7.85;2.67;;;;;;;;;;5053157;28;20109;-82
2022/09/19 11:17:18;;;;;;;6.68;2.80;;;;;;;;;;5053992;28;20029;-82
2022/09/19 11:20:02;;;;;;;4.53;2.28;;;;;;;;;;5054354;28;20488;-79
2022/09/19 11:22:35;;;;;;;4.30;2.42;;;;;;;;;;5055864;28;20110;-82
2022/09/19 11:25:07;;;;;;;10.23;2.60;;;;;;;;;;5050411;28;20024;-81
2022/09/19 11:27:34;;;;;;;4.40;2.20;;;;;;;;;;5066871;28;20025;-82
2022/09/19 11:30:03;;;;;;;5.53;2.47;;;;;;;;;;5052269;28;20048;-83
2022/09/19 11:32:32;;;;;;;7.55;2.35;;;;;;;;;;5050869;28;20025;-83
2022/09/19 11:35:01;;;;;;;7.18;2.67;;;;;;;;;;5055507;28;20484;-82
2022/09/19 11:37:27;;;;;;;7.68;2.20;;;;;;;;;;5050300;28;20544;-82
2022/09/19 11:39:56;;;;;;;5.22;2.72;;;;;;;;;;5054582;28;20028;-83
2022/09/19 11:42:23;;;;;;;4.22;2.10;;;;;;;;;;5050014;28;20033;-82
2022/09/19 11:44:49;;;;;;;3.90;2.13;;;;;;;;;;5052903;28;20025;-82
2022/09/19 11:47:22;;;;;;;3.08;1.88;;;;;;;;;;5053380;28;20415;-82
2022/09/19 11:49:50;;;;;;;4.25;2.00;;;;;;;;;;5051548;28;20040;-83
2022/09/19 11:52:35;;;;;;;5.93;2.30;;;;;;;;;;5052206;28;20041;-82
2022/09/19 11:55:04;;;;;;;5.25;2.30;;;;;;;;;;5053045;28;20031;-82
2022/09/19 11:57:33;;;;;;;4.05;2.25;;;;;;;;;;5051292;28;20492;-83
2022/09/19 12:00:04;;;;;;;3.15;2.17;;;;;;;;;;5051621;28;20036;-84
2022/09/19 12:02:36;;;;;;;5.03;1.95;;;;;;;;;;5051171;28;20037;-80
2022/09/19 12:05:18;;;;;;;5.30;2.33;;;;;;;;;;5065773;28;20299;-83
2022/09/19 12:07:45;;;;;;;4.93;1.63;;;;;;;;;;5053637;28;20028;-82
2022/09/19 12:10:12;;;;;;;4.13;1.88;;;;;;;;;;5051580;28;20025;-84
2022/09/19 12:12:43;;;;;;;4.20;2.00;;;;;;;;;;5053045;28;20029;-83
2022/09/19 12:15:22;;;;;;;3.97;2.13;;;;;;;;;;5050464;28;20056;-83
2022/09/19 12:18:04;;;;;;;4.70;2.13;;;;;;;;;;5053321;28;20503;-80
2022/09/19 12:20:38;;;;;;;4.85;1.85;;;;;;;;;;5051215;28;20473;-83
2022/09/19 12:24:52;;;;;;;3.05;1.80;;;;;;;;;;5054664;28;20067;-83
2022/09/19 12:25:54;;;;;;;3.97;2.10;;;;;;;;;;5051632;28;20029;-83
2022/09/19 12:28:20;;;;;;;6.88;1.88;;;;;;;;;;5057235;28;20477;-82
2022/09/19 12:30:52;;;;;;;3.72;1.60;;;;;;;;;;5061230;28;20028;-82
2022/09/19 12:33:37;;;;;;;5.85;2.08;;;;;;;;;;5057875;28;20031;-83
2022/09/19 12:36:30;;;;;;;3.13;1.77;;;;;;;;;;5054783;28;20045;-83
2022/09/19 12:38:56;;;;;;;4.07;1.75;;;;;;;;;;5057625;28;20044;-83
2022/09/19 12:41:31;;;;;;;3.28;1.73;;;;;;;;;;5055543;28;20385;-83
2022/09/19 12:44:13;;;;;;;3.20;1.92;;;;;;;;;;5058750;28;20013;-84
2022/09/19 12:46:58;;;;;;;3.53;1.58;;;;;;;;;;5055894;28;20032;-82
2022/09/19 12:49:29;;;;;;;2.55;1.70;;;;;;;;;;5058533;28;20043;-79
2022/09/19 12:52:18;;;;;;;2.47;1.70;;;;;;;;;;5055683;28;20105;-82
2022/09/19 12:54:52;;;;;;;4.22;2.00;;;;;;;;;;5054646;28;20449;-82
2022/09/19 12:57:36;;;;;;;6.43;2.17;;;;;;;;;;5054454;28;20020;-83
2022/09/19 13:00:03;;;;;;;4.50;1.73;;;;;;;;;;5054779;28;20029;-84
2022/09/19 13:02:43;;;;;;;4.22;1.83;;;;;;;;;;5058208;28;20051;-84
2022/09/19 13:05:12;;;;;;;6.00;2.13;;;;;;;;;;5052899;28;20328;-82
2022/09/19 13:07:42;;;;;;;5.45;2.22;;;;;;;;;;5058103;28;20030;-80
2022/09/19 13:10:08;;;;;;;4.20;2.17;;;;;;;;;;5052078;28;20017;-82
2022/09/19 13:12:53;;;;;;;4.10;2.00;;;;;;;;;;5052189;28;20071;-81
2022/09/19 13:15:27;;;;;;;4.53;2.10;;;;;;;;;;5050575;28;20122;-82
2022/09/19 13:23:32;;;;;;;3.92;2.28;;;;;;;;;;5051539;28;20440;-84
2022/09/19 13:26:24;;;;;;;6.35;2.20;;;;;;;;;;5050873;28;20028;-83
2022/09/19 13:28:54;;;;;;;4.75;2.30;;;;;;;;;;5058642;28;20033;-85
2022/09/19 13:31:23;;;;;;;3.95;2.00;;;;;;;;;;5060320;28;20035;-85
2022/09/19 13:33:57;;;;;;;2.47;1.85;;;;;;;;;;5060226;28;20017;-83
2022/09/19 13:36:23;;;;;;;6.35;2.50;;;;;;;;;;5055143;28;20021;-83
2022/09/19 13:38:51;;;;;;;4.68;2.22;;;;;;;;;;5058795;28;20028;-86
2022/09/19 13:41:33;;;;;;;7.20;2.25;;;;;;;;;;5053616;28;20354;-86
2022/09/19 13:43:59;;;;;;;;;;;;;;;;;;5058663;28;20021;-85
2022/09/19 13:46:29;;;;;;;7.00;2.30;;;;;;;;;;5054804;28;20280;-85
2022/09/19 13:48:58;;;;;;;6.97;2.60;;;;;;;;;;5058045;28;20016;-85
2022/09/19 13:51:39;;;;;;;5.47;2.20;;;;;;;;;;5055679;28;20056;-86
2022/09/19 13:54:14;;;;;;;4.63;2.17;;;;;;;;;;5058207;28;20024;-85
2022/09/19 13:56:40;;;;;;;4.95;2.38;;;;;;;;;;5055026;28;20184;-91
2022/09/19 13:59:26;;;;;;;5.75;2.38;;;;;;;;;;5059509;28;20027;-86
2022/09/19 14:02:03;;;;;;;3.78;1.98;;;;;;;;;;5056650;28;20307;-85
2022/09/19 14:04:53;;;;;;;4.78;2.17;;;;;;;;;;5057276;28;20091;-87
2022/09/19 14:07:25;;;;;;;4.45;2.42;;;;;;;;;;5056638;28;20025;-87
2022/09/19 14:10:00;;;;;;;8.35;2.67;;;;;;;;;;5054297;28;20016;-87
2022/09/19 14:12:37;;;;;;;4.03;2.22;;;;;;;;;;5046770;28;20083;-87
2022/09/19 14:15:27;;;;;;;4.47;2.50;;;;;;;;;;5046368;28;20020;-88
2022/09/19 14:18:08;;;;;;;15.10;2.58;;;;;;;;;;5058210;28;20025;-86
2022/09/19 14:20:54;;;;;;;5.95;2.25;;;;;;;;;;5050892;28;20025;-87
2022/09/19 14:23:23;;;;;;;5.40;2.17;;;;;;;;;;5050655;28;20033;-85
2022/09/19 14:26:01;;;;;;;4.80;2.70;;;;;;;;;;5047028;28;20023;-85
2022/09/19 14:28:46;;;;;;;3.67;2.10;;;;;;;;;;5048917;28;20066;-86
2022/09/19 14:31:18;;;;;;;3.20;2.00;;;;;;;;;;5046736;28;20028;-85
2022/09/19 14:34:03;;;;;;;8.50;2.60;;;;;;;;;;5064415;28;20074;-86
2022/09/19 14:36:51;;;;;;;6.43;3.00;;;;;;;;;;5051513;28;20025;-84
2022/09/19 14:39:17;;;;;;;3.25;1.90;;;;;;;;;;5050057;28;20036;-84
2022/09/19 14:41:58;;;;;;;5.20;2.25;;;;;;;;;;5052676;28;20093;-86
2022/09/19 14:44:43;;;;;;;5.45;2.70;;;;;;;;;;5048057;28;20051;-85
2022/09/19 14:47:13;;;;;;;4.60;2.15;;;;;;;;;;5052637;28;20021;-85
2022/09/19 14:50:02;;;;;;;4.88;2.08;;;;;;;;;;5052022;28;20052;-81
2022/09/19 14:52:30;;;;;;;4.93;2.28;;;;;;;;;;5058068;28;20063;-87
2022/09/19 14:54:59;;;;;;;5.13;2.10;;;;;;;;;;5047676;28;20037;-85
2022/09/19 14:57:25;;;;;;;2.72;2.00;;;;;;;;;;5048336;28;20091;-84
2022/09/19 14:59:52;;;;;;;3.63;2.08;;;;;;;;;;5048962;28;20052;-85
2022/09/19 15:02:32;;;;;;;4.97;2.20;;;;;;;;;;5049074;28;20048;-85
2022/09/19 15:05:03;;;;;;;6.53;2.55;;;;;;;;;;5048679;28;20116;-84
2022/09/19 15:07:31;;;;;;;4.60;2.20;;;;;;;;;;5055026;28;20539;-86
2022/09/19 15:09:58;;;;;;;3.80;2.20;;;;;;;;;;5057367;28;20028;-86
2022/09/19 15:12:30;;;;;;;3.45;2.00;;;;;;;;;;5065461;28;20434;-87
2022/09/19 15:14:56;;;;;;;5.30;2.13;;;;;;;;;;5050893;28;20028;-85
2022/09/19 15:17:26;;;;;;;4.05;2.38;;;;;;;;;;5048223;28;20381;-86
2022/09/19 15:19:53;;;;;;;6.22;2.40;;;;;;;;;;5054246;28;20083;-87
2022/09/19 15:22:39;;;;;;;2.50;1.92;;;;;;;;;;5047512;28;20389;-86
2022/09/19 15:25:27;;;;;;;4.30;1.90;;;;;;;;;;5054554;28;20502;-87
2022/09/19 15:27:55;;;;;;;5.38;2.30;;;;;;;;;;5046522;28;20024;-86
2022/09/19 15:30:32;;;;;;;5.50;2.20;;;;;;;;;;5052589;28;20477;-85